Time;durP1;ratioP1;P1;durP2;ratioP2;P2;SDS_P1;SDS_P2;PMS_P1;PMS_P2;Temp;Humidity;BMP_temperature;BMP_pressure;BME280_temperature;BME280_humidity;BME280_pressure;Samples;Min_cycle;Max_cycle;Signal;HPM_P1;HPM_P2
2021/08/01 00:00:13;;;;;;;48.00;20.73;;;14.80;99.90;;;;;;8291655;28;20037;-64
2021/08/01 00:04:13;;;;;;;45.55;19.92;;;14.70;99.90;;;;;;8292544;28;20632;-63
2021/08/01 00:08:15;;;;;;;47.47;20.02;;;14.80;99.90;;;;;;8292453;28;20029;-63
2021/08/01 00:12:17;;;;;;;48.17;20.55;;;14.80;99.90;;;;;;8291949;28;20105;-63
2021/08/01 00:16:17;;;;;;;49.15;20.85;;;14.80;99.90;;;;;;8292271;28;20400;-64
2021/08/01 00:20:19;;;;;;;50.63;21.50;;;14.60;99.90;;;;;;8291645;28;20117;-64
2021/08/01 00:24:19;;;;;;;49.08;20.55;;;14.60;99.90;;;;;;8291605;28;20030;-63
2021/08/01 00:28:20;;;;;;;49.72;21.17;;;14.80;99.90;;;;;;8291876;28;20046;-63
2021/08/01 00:32:20;;;;;;;47.15;20.60;;;14.60;99.90;;;;;;8291889;28;20053;-63
2021/08/01 00:36:21;;;;;;;47.85;20.40;;;14.30;99.90;;;;;;8291689;28;20022;-63
2021/08/01 00:40:22;;;;;;;49.60;21.33;;;14.20;99.90;;;;;;8291142;28;20232;-63
2021/08/01 00:44:23;;;;;;;49.67;20.92;;;14.20;99.90;;;;;;8296880;28;20026;-63
2021/08/01 00:48:25;;;;;;;49.08;20.52;;;14.50;99.90;;;;;;8297426;28;20128;-63
2021/08/01 00:52:26;;;;;;;48.25;20.05;;;14.50;99.90;;;;;;8296887;28;20029;-63
2021/08/01 00:56:26;;;;;;;49.05;20.35;;;14.60;99.90;;;;;;8289239;28;20042;-63
2021/08/01 01:00:46;;;;;;;50.10;21.08;;;14.70;99.90;;;;;;8296306;28;20030;-63
2021/08/01 01:05:20;;;;;;;50.05;20.67;;;14.80;99.90;;;;;;8296943;28;20048;-64
2021/08/01 01:09:23;;;;;;;49.13;20.88;;;14.70;99.90;;;;;;8296637;28;20049;-63
2021/08/01 01:13:30;;;;;;;47.58;20.13;;;14.60;99.90;;;;;;8296034;28;20084;-64
2021/08/01 01:17:33;;;;;;;47.45;20.45;;;14.70;99.90;;;;;;8296609;28;20029;-63
2021/08/01 01:21:51;;;;;;;47.17;20.27;;;14.60;99.90;;;;;;8296079;28;20026;-63
2021/08/01 01:26:04;;;;;;;44.83;19.58;;;14.60;99.90;;;;;;8296065;28;20440;-63
2021/08/01 01:30:05;;;;;;;46.53;20.40;;;14.40;99.90;;;;;;8295772;28;20113;-63
2021/08/01 01:34:18;;;;;;;46.17;20.23;;;14.40;99.90;;;;;;8295871;28;20030;-63
2021/08/01 01:38:21;;;;;;;45.75;19.98;;;14.40;99.90;;;;;;8295892;28;20087;-63
2021/08/01 01:42:22;;;;;;;45.42;19.73;;;14.50;99.90;;;;;;8295594;28;20033;-63
2021/08/01 01:46:24;;;;;;;44.38;20.20;;;14.40;99.90;;;;;;8295663;28;20037;-63
2021/08/01 01:50:25;;;;;;;42.70;19.75;;;14.40;99.90;;;;;;8294751;28;20049;-63
2021/08/01 01:54:26;;;;;;;43.28;19.73;;;14.30;99.90;;;;;;8294664;28;20508;-63
2021/08/01 01:58:28;;;;;;;44.50;19.83;;;14.20;99.90;;;;;;8294926;28;20034;-63
2021/08/01 02:02:28;;;;;;;43.35;19.65;;;14.10;99.90;;;;;;8277342;28;20026;-63
2021/08/01 02:06:29;;;;;;;44.15;19.77;;;13.90;99.90;;;;;;8295413;28;20029;-63
2021/08/01 02:10:38;;;;;;;44.65;20.35;;;13.90;99.90;;;;;;8294543;28;20034;-63
2021/08/01 02:14:59;;;;;;;46.38;20.38;;;13.90;99.90;;;;;;8294850;28;20515;-63
2021/08/01 02:19:05;;;;;;;45.95;20.10;;;13.90;99.90;;;;;;8294623;28;20022;-64
2021/08/01 02:23:08;;;;;;;45.05;20.10;;;14.00;99.90;;;;;;8294381;28;20034;-63
2021/08/01 02:27:10;;;;;;;45.03;20.15;;;13.90;99.90;;;;;;8294612;28;20123;-63
2021/08/01 02:31:12;;;;;;;44.08;19.65;;;13.80;99.90;;;;;;8294414;28;20109;-63
2021/08/01 02:35:13;;;;;;;45.42;19.80;;;13.80;99.90;;;;;;8276732;28;20029;-63
2021/08/01 02:39:15;;;;;;;45.28;19.70;;;13.70;99.90;;;;;;8293929;28;20025;-63
2021/08/01 02:43:17;;;;;;;44.88;19.90;;;13.70;99.90;;;;;;8294151;28;20053;-63
2021/08/01 02:47:20;;;;;;;43.92;19.75;;;13.60;99.90;;;;;;8294377;28;20045;-63
2021/08/01 02:51:22;;;;;;;43.28;19.75;;;13.80;99.90;;;;;;8293632;28;20022;-63
2021/08/01 02:55:26;;;;;;;43.35;19.70;;;13.80;99.90;;;;;;8293718;28;20067;-63
2021/08/01 02:59:28;;;;;;;42.17;19.35;;;13.70;99.90;;;;;;8292785;28;20033;-63
2021/08/01 03:03:30;;;;;;;42.00;19.10;;;13.80;99.90;;;;;;8293034;28;20088;-63
2021/08/01 03:07:30;;;;;;;41.85;19.27;;;13.80;99.90;;;;;;8293504;28;20040;-63
2021/08/01 03:11:33;;;;;;;42.38;19.30;;;13.90;99.90;;;;;;8293213;28;20033;-63
2021/08/01 03:15:34;;;;;;;42.72;19.60;;;13.90;99.90;;;;;;8292824;28;20543;-63
2021/08/01 03:19:37;;;;;;;43.92;19.85;;;13.80;99.90;;;;;;8292645;28;20038;-63
2021/08/01 03:23:37;;;;;;;44.20;20.08;;;13.70;99.90;;;;;;8275500;28;20022;-63
2021/08/01 03:27:38;;;;;;;44.08;20.05;;;13.70;99.90;;;;;;8292745;28;20143;-63
2021/08/01 03:31:38;;;;;;;44.78;19.83;;;13.80;99.90;;;;;;8292837;28;20033;-63
2021/08/01 03:35:39;;;;;;;43.90;19.95;;;13.80;99.90;;;;;;8292712;28;20489;-63
2021/08/01 03:39:40;;;;;;;44.55;20.05;;;14.00;99.90;;;;;;8292824;28;20026;-63
2021/08/01 03:43:40;;;;;;;44.65;20.00;;;14.00;99.90;;;;;;8292461;28;20392;-63
2021/08/01 03:47:41;;;;;;;44.70;20.17;;;13.90;99.90;;;;;;8292645;28;20057;-63
2021/08/01 03:51:41;;;;;;;45.78;20.08;;;13.80;99.90;;;;;;8291998;28;20088;-63
2021/08/01 03:55:42;;;;;;;44.38;19.85;;;13.90;99.90;;;;;;8292533;28;20037;-63
2021/08/01 03:59:42;;;;;;;44.33;20.23;;;13.90;99.90;;;;;;8274469;28;20030;-63
2021/08/01 04:03:43;;;;;;;43.65;19.65;;;13.90;99.90;;;;;;8291742;28;20022;-63
2021/08/01 04:07:44;;;;;;;45.63;19.77;;;14.10;99.90;;;;;;8292662;28;20096;-63
2021/08/01 04:11:44;;;;;;;44.70;19.67;;;14.20;99.90;;;;;;8291993;28;20053;-63
2021/08/01 04:15:48;;;;;;;43.83;19.73;;;14.10;99.90;;;;;;8292186;28;20038;-63
2021/08/01 04:19:48;;;;;;;43.15;19.55;;;14.00;99.90;;;;;;8298206;28;20044;-63
2021/08/01 04:23:49;;;;;;;43.20;19.52;;;14.00;99.90;;;;;;8298117;28;20063;-63
2021/08/01 04:27:49;;;;;;;42.25;19.67;;;14.10;99.90;;;;;;8280480;28;20030;-63
2021/08/01 04:31:50;;;;;;;41.70;19.17;;;14.20;99.90;;;;;;8297403;28;20113;-63
2021/08/01 04:35:51;;;;;;;42.70;19.48;;;14.20;99.90;;;;;;8279787;28;20022;-64
2021/08/01 04:39:51;;;;;;;39.40;18.88;;;14.00;99.90;;;;;;8297727;28;20041;-63
2021/08/01 04:43:52;;;;;;;40.08;19.08;;;14.00;99.90;;;;;;8297777;28;20069;-63
2021/08/01 04:47:52;;;;;;;39.80;18.65;;;14.00;99.90;;;;;;8280219;28;20742;-63
2021/08/01 04:51:53;;;;;;;41.08;19.15;;;13.90;99.90;;;;;;8296892;28;20062;-64
2021/08/01 04:55:53;;;;;;;41.13;19.05;;;13.80;99.90;;;;;;8297314;28;20456;-63
2021/08/01 04:59:54;;;;;;;42.25;19.35;;;13.80;99.90;;;;;;8296902;28;20040;-63
2021/08/01 05:03:54;;;;;;;41.65;19.20;;;13.70;99.90;;;;;;8279306;28;20029;-64
2021/08/01 05:07:55;;;;;;;41.60;18.98;;;13.80;99.90;;;;;;8279762;28;20080;-64
2021/08/01 05:11:55;;;;;;;42.42;19.50;;;13.90;99.90;;;;;;8279107;28;20030;-64
2021/08/01 05:15:56;;;;;;;43.17;19.45;;;13.90;99.90;;;;;;8279042;28;20034;-64
2021/08/01 05:19:56;;;;;;;42.70;19.38;;;13.90;99.90;;;;;;8296522;28;20056;-64
2021/08/01 05:23:57;;;;;;;40.65;19.13;;;13.90;99.90;;;;;;8296293;28;20442;-64
2021/08/01 05:27:57;;;;;;;41.25;19.08;;;14.10;99.90;;;;;;8294942;28;20026;-64
2021/08/01 05:31:58;;;;;;;42.13;19.25;;;14.20;99.90;;;;;;8296530;28;20037;-64
2021/08/01 05:36:05;;;;;;;39.65;18.80;;;14.30;99.90;;;;;;8296512;28;20044;-64
2021/08/01 05:40:08;;;;;;;41.20;19.77;;;14.30;99.90;;;;;;8278379;28;20528;-64
2021/08/01 05:44:09;;;;;;;41.20;19.25;;;14.20;99.90;;;;;;8296061;28;20050;-63
2021/08/01 05:48:10;;;;;;;42.67;19.48;;;14.30;99.90;;;;;;8278743;28;20017;-64
2021/08/01 05:52:13;;;;;;;43.47;19.77;;;14.30;99.90;;;;;;8295343;28;20394;-64
2021/08/01 05:56:15;;;;;;;46.90;20.20;;;14.50;99.90;;;;;;8278145;28;20026;-64
2021/08/01 06:00:15;;;;;;;52.78;21.52;;;14.80;99.90;;;;;;8294867;28;20077;-64
2021/08/01 06:04:16;;;;;;;50.83;21.15;;;15.10;99.90;;;;;;8284793;28;20436;-64
2021/08/01 06:08:16;;;;;;;46.80;19.75;;;15.20;99.90;;;;;;8286835;28;20088;-64
2021/08/01 06:12:17;;;;;;;50.97;21.02;;;15.20;99.90;;;;;;8294110;28;20040;-64
2021/08/01 06:16:18;;;;;;;47.33;20.10;;;15.20;99.90;;;;;;8276922;28;20072;-64
2021/08/01 06:20:18;;;;;;;53.65;22.00;;;15.50;99.90;;;;;;8276192;28;20034;-64
2021/08/01 06:24:19;;;;;;;51.50;20.60;;;15.60;99.90;;;;;;8294560;28;20034;-64
2021/08/01 06:28:19;;;;;;;53.38;21.50;;;15.60;99.90;;;;;;8294548;28;20427;-64
2021/08/01 06:32:20;;;;;;;50.72;20.15;;;15.70;99.90;;;;;;8294256;28;20030;-64
2021/08/01 06:36:20;;;;;;;50.15;20.50;;;15.50;99.90;;;;;;8294311;28;20025;-64
2021/08/01 06:40:21;;;;;;;51.53;21.05;;;15.40;99.90;;;;;;8275848;28;20033;-64
2021/08/01 06:44:22;;;;;;;50.05;20.42;;;15.40;99.90;;;;;;8293759;28;20393;-63
2021/08/01 06:48:22;;;;;;;47.60;20.25;;;15.50;99.90;;;;;;8294085;28;20086;-64
2021/08/01 06:52:23;;;;;;;46.55;20.13;;;15.50;99.90;;;;;;8271045;28;20046;-64
2021/08/01 06:56:23;;;;;;;47.25;20.27;;;15.60;99.90;;;;;;8258936;28;20546;-64
2021/08/01 07:00:24;;;;;;;45.40;20.05;;;15.50;99.90;;;;;;8275286;28;20026;-64
2021/08/01 07:04:25;;;;;;;43.42;19.48;;;15.40;99.90;;;;;;8282599;28;20515;-64
2021/08/01 07:08:25;;;;;;;41.60;19.30;;;15.50;99.90;;;;;;8252441;28;20034;-64
2021/08/01 07:12:26;;;;;;;43.33;20.13;;;15.60;99.90;;;;;;8259385;28;20037;-64
2021/08/01 07:16:26;;;;;;;43.30;19.60;;;15.50;99.90;;;;;;8267973;28;20025;-64
2021/08/01 07:20:27;;;;;;;42.72;20.17;;;15.30;99.90;;;;;;8282435;28;20057;-64
2021/08/01 07:24:28;;;;;;;43.97;19.67;;;15.30;99.90;;;;;;8271239;28;20018;-64
2021/08/01 07:28:28;;;;;;;44.55;20.05;;;15.20;99.90;;;;;;8262389;28;20034;-64
2021/08/01 07:32:29;;;;;;;47.95;20.17;;;15.30;99.90;;;;;;8268917;28;20088;-63
2021/08/01 07:36:30;;;;;;;39.45;19.08;;;15.30;99.90;;;;;;8277640;28;20038;-63
2021/08/01 07:40:30;;;;;;;37.00;18.88;;;15.50;99.90;;;;;;8272605;28;20410;-63
2021/08/01 07:44:35;;;;;;;37.35;18.58;;;15.40;99.90;;;;;;8277925;28;20037;-63
2021/08/01 07:48:36;;;;;;;38.50;18.80;;;15.40;99.90;;;;;;8276742;28;20034;-64
2021/08/01 07:52:36;;;;;;;39.40;18.70;;;15.50;99.90;;;;;;8284450;28;20042;-63
2021/08/01 07:56:37;;;;;;;40.58;19.52;;;15.40;99.90;;;;;;8249414;28;1036101;-63
2021/08/01 08:00:37;;;;;;;40.85;19.23;;;15.70;99.90;;;;;;8281264;28;20030;-63
2021/08/01 08:04:38;;;;;;;41.00;19.27;;;15.90;99.90;;;;;;8281860;28;20520;-64
2021/08/01 08:08:39;;;;;;;39.53;19.33;;;16.10;99.90;;;;;;8282249;28;20099;-63
2021/08/01 08:12:39;;;;;;;39.85;18.88;;;16.30;99.90;;;;;;8279758;28;20045;-63
2021/08/01 08:16:40;;;;;;;43.33;19.58;;;16.40;99.90;;;;;;8267885;28;20056;-63
2021/08/01 08:20:41;;;;;;;51.17;20.83;;;16.20;99.90;;;;;;8267331;28;20053;-63
2021/08/01 08:24:42;;;;;;;51.20;20.90;;;16.10;99.90;;;;;;8267432;28;20129;-64
2021/08/01 08:28:42;;;;;;;60.15;22.35;;;16.00;99.90;;;;;;8286923;28;20524;-63
2021/08/01 08:32:43;;;;;;;60.42;22.30;;;16.00;99.90;;;;;;8284546;28;20038;-63
2021/08/01 08:36:47;;;;;;;58.25;21.95;;;16.10;99.90;;;;;;8285432;28;20080;-63
2021/08/01 08:40:48;;;;;;;57.90;21.65;;;15.90;99.90;;;;;;8261946;28;20405;-63
2021/08/01 08:44:49;;;;;;;56.33;21.92;;;16.10;99.90;;;;;;8279160;28;20030;-63
2021/08/01 08:48:51;;;;;;;56.63;21.77;;;16.30;99.90;;;;;;8252302;28;20117;-63
2021/08/01 08:52:57;;;;;;;55.35;21.33;;;16.40;99.90;;;;;;8285152;28;20492;-64
2021/08/01 08:57:01;;;;;;;53.63;21.10;;;16.30;99.90;;;;;;8258127;28;20120;-63
2021/08/01 09:01:03;;;;;;;53.75;21.30;;;16.60;99.90;;;;;;8274350;28;20501;-63
2021/08/01 09:05:06;;;;;;;38.55;18.92;;;16.40;99.90;;;;;;8274805;28;20104;-63
2021/08/01 09:09:07;;;;;;;47.78;20.30;;;16.60;99.90;;;;;;8281562;28;20030;-63
2021/08/01 09:13:07;;;;;;;47.30;20.50;;;16.70;99.90;;;;;;8266014;28;20108;-63
2021/08/01 09:17:08;;;;;;;42.35;19.58;;;16.50;99.90;;;;;;8267838;28;20042;-64
2021/08/01 09:21:09;;;;;;;43.63;19.60;;;16.40;99.90;;;;;;8255502;28;20574;-62
2021/08/01 09:25:18;;;;;;;45.25;19.90;;;16.40;99.90;;;;;;8280372;28;20034;-63
2021/08/01 09:29:19;;;;;;;45.83;20.23;;;16.60;99.90;;;;;;8281711;28;20057;-63
2021/08/01 09:33:39;;;;;;;45.72;19.90;;;16.80;99.90;;;;;;8279720;28;20042;-63
2021/08/01 09:37:39;;;;;;;44.67;19.65;;;17.10;99.90;;;;;;8295092;28;20129;-64
2021/08/01 09:41:40;;;;;;;43.40;19.45;;;17.30;99.90;;;;;;8284380;28;20496;-63
2021/08/01 09:45:41;;;;;;;33.80;18.10;;;17.40;99.90;;;;;;8264571;28;20034;-63
2021/08/01 09:50:09;;;;;;;40.75;19.50;;;17.40;99.90;;;;;;8278263;28;20125;-64
2021/08/01 09:54:10;;;;;;;53.72;21.23;;;17.40;99.90;;;;;;8274493;28;20039;-63
2021/08/01 09:58:11;;;;;;;55.00;21.25;;;17.70;99.90;;;;;;8281544;28;20038;-63
2021/08/01 10:02:13;;;;;;;56.17;21.45;;;17.70;99.90;;;;;;8260457;28;20080;-63
2021/08/01 10:06:18;;;;;;;49.97;20.73;;;18.10;99.90;;;;;;8280153;28;20041;-63
2021/08/01 10:10:24;;;;;;;41.22;19.75;;;18.00;99.90;;;;;;8277873;28;20030;-63
2021/08/01 10:14:27;;;;;;;44.35;20.15;;;17.60;99.90;;;;;;8275314;28;20120;-63
2021/08/01 10:18:28;;;;;;;46.30;20.05;;;17.60;99.90;;;;;;8281483;28;20030;-63
2021/08/01 10:22:29;;;;;;;43.25;19.48;;;17.60;99.90;;;;;;8260923;28;20030;-63
2021/08/01 10:26:39;;;;;;;36.88;18.75;;;18.20;99.90;;;;;;8278391;28;20041;-63
2021/08/01 10:30:41;;;;;;;36.30;18.73;;;18.10;99.90;;;;;;8277405;28;20041;-63
2021/08/01 10:34:57;;;;;;;33.90;22.13;;;18.10;99.90;;;;;;8283237;28;20036;-63
2021/08/01 10:39:05;;;;;;;34.85;25.30;;;18.20;99.90;;;;;;8287983;28;20030;-64
2021/08/01 10:43:08;;;;;;;;;;;18.30;99.90;;;;;;8276010;28;20100;-64
2021/08/01 10:47:10;;;;;;;84.60;24.08;;;18.50;99.90;;;;;;8274402;28;20451;-63
2021/08/01 10:51:10;;;;;;;56.22;21.38;;;18.30;99.90;;;;;;8277882;28;20046;-64
2021/08/01 10:55:22;;;;;;;46.55;20.70;;;18.40;99.90;;;;;;8276167;28;20409;-63
2021/08/01 10:59:49;;;;;;;47.13;20.00;;;18.30;99.90;;;;;;8288884;28;20038;-63
2021/08/01 11:04:26;;;;;;;40.22;19.05;;;18.90;99.90;;;;;;8280511;28;20582;-64
2021/08/01 11:08:26;;;;;;;;;;;19.50;99.90;;;;;;8267798;28;20030;-64
2021/08/01 11:12:32;;;;;;;67.80;21.20;;;19.50;99.90;;;;;;8273014;28;20475;-64
2021/08/01 11:16:32;;;;;;;44.33;19.35;;;20.20;99.90;;;;;;8275904;28;20029;-63
2021/08/01 11:20:34;;;;;;;43.63;20.30;;;20.60;99.90;;;;;;8278772;28;20655;-64
2021/08/01 11:24:34;;;;;;;43.80;19.77;;;20.70;99.90;;;;;;8272435;28;20018;-64
2021/08/01 11:28:35;;;;;;;46.28;20.00;;;21.20;99.90;;;;;;8277401;28;20040;-63
2021/08/01 11:32:52;;;;;;;46.47;19.85;;;20.60;99.90;;;;;;8270784;28;20026;-64
2021/08/01 11:37:15;;;;;;;47.38;20.17;;;20.50;99.90;;;;;;8267564;28;20370;-63
2021/08/01 11:41:28;;;;;;;48.70;20.58;;;20.70;99.90;;;;;;8275506;28;20389;-63
2021/08/01 11:46:01;;;;;;;48.60;20.70;;;21.40;99.90;;;;;;8283838;28;20022;-63
2021/08/01 11:50:05;;;;;;;44.35;20.15;;;21.50;99.90;;;;;;8274778;28;20026;-63
2021/08/01 11:54:06;;;;;;;45.58;19.92;;;22.10;99.90;;;;;;8275332;28;20038;-63
2021/08/01 11:58:07;;;;;;;47.42;20.40;;;22.50;99.90;;;;;;8264154;28;20487;-63
2021/08/01 12:02:10;;;;;;;48.63;20.50;;;22.50;99.90;;;;;;8272777;28;20027;-64
2021/08/01 12:06:10;;;;;;;48.38;20.65;;;22.20;99.90;;;;;;8285356;28;20443;-64
2021/08/01 12:10:24;;;;;;;48.22;20.95;;;22.90;99.90;;;;;;8275198;28;20033;-64
2021/08/01 12:14:25;;;;;;;49.78;20.52;;;22.50;99.90;;;;;;8275273;28;20109;-64
2021/08/01 12:18:27;;;;;;;47.30;20.35;;;21.80;99.90;;;;;;8266789;28;20035;-63
2021/08/01 12:22:27;;;;;;;47.35;20.17;;;21.40;99.90;;;;;;8271708;28;20030;-63
2021/08/01 12:26:41;;;;;;;46.67;19.77;;;21.30;99.90;;;;;;8275868;28;20052;-64
2021/08/01 12:30:49;;;;;;;47.30;20.65;;;21.60;99.90;;;;;;8270418;28;20034;-63
2021/08/01 12:34:51;;;;;;;49.25;20.50;;;21.70;99.90;;;;;;8267416;28;20517;-64
2021/08/01 12:38:52;;;;;;;49.30;20.00;;;22.60;99.90;;;;;;8263078;28;20030;-64
2021/08/01 12:43:14;;;;;;;50.05;21.40;;;22.80;99.90;;;;;;8295847;28;20029;-63
2021/08/01 12:47:15;;;;;;;50.25;20.83;;;22.10;99.90;;;;;;8296677;28;20025;-64
2021/08/01 12:51:16;;;;;;;50.03;20.38;;;22.20;99.90;;;;;;8297013;28;20511;-63
2021/08/01 12:55:17;;;;;;;51.05;20.80;;;22.40;99.90;;;;;;8297333;28;20022;-64
2021/08/01 12:59:17;;;;;;;50.67;20.70;;;22.30;99.90;;;;;;8279286;28;20069;-64
2021/08/01 13:03:31;;;;;;;51.50;20.73;;;22.30;99.90;;;;;;8296988;28;20481;-64
2021/08/01 13:07:45;;;;;;;52.03;20.88;;;22.60;99.90;;;;;;8297234;28;20041;-64
2021/08/01 13:11:46;;;;;;;50.72;20.67;;;23.00;99.90;;;;;;8296136;28;20037;-63
2021/08/01 13:15:52;;;;;;;52.15;21.05;;;22.60;99.90;;;;;;8279038;28;20489;-64
2021/08/01 13:19:53;;;;;;;53.08;21.25;;;23.40;99.90;;;;;;8271387;28;20472;-63
2021/08/01 13:24:07;;;;;;;54.72;21.05;;;23.80;99.90;;;;;;8280812;28;20022;-63
2021/08/01 13:28:08;;;;;;;51.78;21.42;;;24.80;99.90;;;;;;8278960;28;20116;-64
2021/08/01 13:32:12;;;;;;;;;;;26.30;99.90;;;;;;8276555;28;20076;-64
2021/08/01 13:36:12;;;;;;;70.88;22.70;;;25.20;99.90;;;;;;8278987;28;20413;-64
2021/08/01 13:40:13;;;;;;;58.92;22.92;;;24.80;99.90;;;;;;8260187;28;20639;-64
2021/08/01 13:44:16;;;;;;;58.60;21.98;;;26.20;99.90;;;;;;8258648;28;20018;-64
2021/08/01 13:48:17;;;;;;;60.58;22.48;;;27.70;97.10;;;;;;8257578;28;20038;-64
2021/08/01 13:52:20;;;;;;;58.72;21.90;;;28.10;92.50;;;;;;8285936;28;20030;-64
2021/08/01 13:56:20;;;;;;;53.38;21.40;;;25.30;95.20;;;;;;8292556;28;20037;-64
2021/08/01 14:00:21;;;;;;;50.55;21.35;;;24.00;99.90;;;;;;8292050;28;20034;-64
2021/08/01 14:04:21;;;;;;;47.05;20.25;;;23.10;99.90;;;;;;8292358;28;20026;-64
2021/08/01 14:08:22;;;;;;;46.17;20.27;;;22.00;99.90;;;;;;8282902;28;20501;-64
2021/08/01 14:12:24;;;;;;;48.47;21.17;;;21.60;99.90;;;;;;8289310;28;20030;-64
2021/08/01 14:16:24;;;;;;;45.47;20.17;;;21.60;99.90;;;;;;8290175;28;20409;-64
2021/08/01 14:20:24;;;;;;;48.13;20.83;;;21.30;99.90;;;;;;8290771;28;20030;-64
2021/08/01 14:24:25;;;;;;;47.00;20.45;;;20.90;99.90;;;;;;8291291;28;20084;-64
2021/08/01 14:28:28;;;;;;;46.78;20.42;;;20.70;99.90;;;;;;8291730;28;20030;-64
2021/08/01 14:32:29;;;;;;;47.10;20.55;;;20.70;99.90;;;;;;8291376;28;20030;-64
2021/08/01 14:36:34;;;;;;;46.65;20.45;;;20.80;99.90;;;;;;8290620;28;20036;-64
2021/08/01 14:40:38;;;;;;;47.63;20.38;;;20.50;99.90;;;;;;8273206;28;20026;-64
2021/08/01 14:44:38;;;;;;;45.28;20.15;;;20.50;99.90;;;;;;8291089;28;20444;-64
2021/08/01 14:48:44;;;;;;;44.78;20.17;;;20.70;99.90;;;;;;8291061;28;20037;-64
2021/08/01 14:53:04;;;;;;;43.72;19.90;;;20.30;99.90;;;;;;8290557;28;20037;-64
2021/08/01 14:57:39;;;;;;;45.53;21.25;;;20.00;99.90;;;;;;8289430;28;20033;-64
2021/08/01 15:01:43;;;;;;;45.92;20.65;;;19.70;99.90;;;;;;8287345;28;20049;-64
2021/08/01 15:05:58;;;;;;;45.17;19.77;;;19.80;99.90;;;;;;8270489;28;20030;-64
2021/08/01 15:10:14;;;;;;;44.58;20.45;;;19.60;99.90;;;;;;8270417;28;20079;-64
2021/08/01 15:14:21;;;;;;;43.40;20.42;;;19.20;99.90;;;;;;8288028;28;20456;-64
2021/08/01 15:18:25;;;;;;;42.60;19.98;;;18.90;99.90;;;;;;8270086;28;20481;-64
2021/08/01 15:23:01;;;;;;;42.15;20.05;;;18.90;99.90;;;;;;8286689;28;20029;-64
2021/08/01 15:27:06;;;;;;;41.90;19.83;;;18.50;99.90;;;;;;8282104;28;20116;-64
2021/08/01 15:31:09;;;;;;;42.20;20.33;;;18.20;99.90;;;;;;8255697;28;20441;-63
2021/08/01 15:35:10;;;;;;;41.40;20.02;;;18.10;99.90;;;;;;8270445;28;20033;-64
2021/08/01 15:39:13;;;;;;;38.42;19.38;;;17.70;99.90;;;;;;8271974;28;20308;-64
2021/08/01 15:43:19;;;;;;;38.97;19.83;;;17.40;99.90;;;;;;8250359;28;20451;-64
2021/08/01 15:47:21;;;;;;;39.85;19.83;;;17.00;99.90;;;;;;8246749;28;20026;-63
2021/08/01 15:51:27;;;;;;;40.40;20.27;;;16.90;99.90;;;;;;8253611;28;20719;-63
2021/08/01 15:55:34;;;;;;;40.40;20.33;;;16.80;99.90;;;;;;8268406;28;20026;-63
2021/08/01 15:59:59;;;;;;;40.10;19.75;;;16.70;99.90;;;;;;8268394;28;20030;-64
2021/08/01 16:04:06;;;;;;;39.78;18.95;;;16.50;99.90;;;;;;8256777;28;20041;-64
2021/08/01 16:08:35;;;;;;;41.25;20.45;;;16.30;99.90;;;;;;8260543;28;20034;-64
2021/08/01 16:12:43;;;;;;;41.22;20.13;;;16.30;99.90;;;;;;8243166;28;20076;-64
2021/08/01 16:16:44;;;;;;;41.45;19.50;;;16.00;99.90;;;;;;8272633;28;20040;-64
2021/08/01 16:20:47;;;;;;;42.35;20.15;;;15.90;99.90;;;;;;8272772;28;20029;-64
2021/08/01 16:24:51;;;;;;;42.03;19.60;;;15.90;99.90;;;;;;8286810;28;20076;-64
2021/08/01 16:28:51;;;;;;;41.47;19.35;;;16.00;99.90;;;;;;8267664;28;20030;-64
2021/08/01 16:32:52;;;;;;;41.53;19.50;;;16.10;99.90;;;;;;8283279;28;20447;-64
2021/08/01 16:36:52;;;;;;;41.95;19.75;;;16.10;99.90;;;;;;8294556;28;20440;-64
2021/08/01 16:41:16;;;;;;;41.65;19.17;;;16.20;99.90;;;;;;8294346;28;20113;-64
2021/08/01 16:45:18;;;;;;;42.10;19.85;;;16.20;99.90;;;;;;8267763;28;20028;-64
2021/08/01 16:49:30;;;;;;;42.88;20.00;;;16.30;99.90;;;;;;8294637;28;20073;-64
2021/08/01 16:53:32;;;;;;;42.53;19.55;;;16.30;99.90;;;;;;8283811;28;20026;-64
2021/08/01 16:57:38;;;;;;;43.33;20.23;;;16.30;99.90;;;;;;8268271;28;20120;-64
2021/08/01 17:01:42;;;;;;;42.28;19.95;;;16.30;99.90;;;;;;8286539;28;20022;-64
2021/08/01 17:05:52;;;;;;;42.53;19.92;;;16.20;99.90;;;;;;8280692;28;20026;-64
2021/08/01 17:09:52;;;;;;;43.05;19.98;;;16.30;99.90;;;;;;8265317;28;20116;-64
2021/08/01 17:13:54;;;;;;;43.30;19.27;;;16.30;99.90;;;;;;8270878;28;20038;-64
2021/08/01 17:17:55;;;;;;;41.78;19.65;;;16.20;99.90;;;;;;8258862;28;20029;-64
2021/08/01 17:21:58;;;;;;;41.15;19.60;;;16.00;99.90;;;;;;8278578;28;20044;-65
2021/08/01 17:25:58;;;;;;;41.80;20.45;;;15.80;99.90;;;;;;8258031;28;20029;-64
2021/08/01 17:30:01;;;;;;;41.72;20.52;;;15.50;99.90;;;;;;8274698;28;20714;-64
2021/08/01 17:34:05;;;;;;;42.30;20.58;;;15.40;99.90;;;;;;8282425;28;20500;-64
2021/08/01 17:38:10;;;;;;;41.95;20.35;;;15.30;99.90;;;;;;8271746;28;20032;-64
2021/08/01 17:42:12;;;;;;;41.65;19.60;;;15.30;99.90;;;;;;8248408;28;20624;-64
2021/08/01 17:46:15;;;;;;;42.03;19.83;;;15.20;99.90;;;;;;8279237;28;20436;-64
2021/08/01 17:50:16;;;;;;;42.38;20.58;;;15.20;99.90;;;;;;8275038;28;20034;-64
2021/08/01 17:54:18;;;;;;;40.92;20.52;;;15.30;99.90;;;;;;8271484;28;20037;-64
2021/08/01 17:58:22;;;;;;;40.95;19.70;;;15.10;99.90;;;;;;8264530;28;20054;-64
2021/08/01 18:02:24;;;;;;;42.65;19.90;;;15.00;99.90;;;;;;8277087;28;20978;-68
2021/08/01 18:06:48;;;;;;;41.67;19.88;;;14.80;99.90;;;;;;8275338;28;20030;-71
2021/08/01 18:10:56;;;;;;;41.17;19.88;;;14.90;99.90;;;;;;8272768;28;20072;-71
2021/08/01 18:15:05;;;;;;;41.13;19.98;;;14.80;99.90;;;;;;8276633;28;20029;-71
2021/08/01 18:19:06;;;;;;;41.80;20.20;;;14.70;99.90;;;;;;8276199;28;20088;-65
2021/08/01 18:23:10;;;;;;;46.42;25.25;;;14.60;99.90;;;;;;8278425;28;20041;-65
2021/08/01 18:27:11;;;;;;;42.25;20.83;;;14.70;99.90;;;;;;8273609;28;20433;-65
2021/08/01 18:31:15;;;;;;;42.22;20.95;;;14.80;99.90;;;;;;8264607;28;20566;-64
2021/08/01 18:35:16;;;;;;;41.80;20.10;;;14.70;99.90;;;;;;8262921;28;20026;-65
2021/08/01 18:39:17;;;;;;;41.88;19.80;;;14.70;99.90;;;;;;8269483;28;20038;-65
2021/08/01 18:43:22;;;;;;;42.83;20.13;;;14.70;99.90;;;;;;8265919;28;20025;-65
2021/08/01 18:47:26;;;;;;;42.00;19.52;;;14.80;99.90;;;;;;8265205;28;20873;-65
2021/08/01 18:51:29;;;;;;;42.50;20.55;;;14.90;99.90;;;;;;8274156;28;20064;-65
2021/08/01 18:55:31;;;;;;;42.65;20.35;;;14.80;99.90;;;;;;8265640;28;20636;-65
2021/08/01 18:59:34;;;;;;;42.30;20.48;;;14.90;99.90;;;;;;8248318;28;20456;-65
2021/08/01 19:03:36;;;;;;;42.15;20.38;;;14.90;99.90;;;;;;8261991;28;20412;-65
2021/08/01 19:07:39;;;;;;;41.72;20.08;;;14.80;99.90;;;;;;8265381;28;20030;-65
2021/08/01 19:11:40;;;;;;;42.00;20.27;;;14.80;99.90;;;;;;8271159;28;20472;-65
2021/08/01 19:16:17;;;;;;;41.05;20.23;;;14.80;99.90;;;;;;8274490;28;20033;-65
2021/08/01 19:20:21;;;;;;;41.45;20.73;;;14.70;99.90;;;;;;8253426;28;20080;-65
2021/08/01 19:24:32;;;;;;;40.78;19.73;;;14.70;99.90;;;;;;8271279;28;20109;-65
2021/08/01 19:28:35;;;;;;;42.45;20.35;;;14.70;99.90;;;;;;8272824;28;20026;-65
2021/08/01 19:32:44;;;;;;;42.05;20.20;;;14.80;99.90;;;;;;8272146;28;20033;-65
2021/08/01 19:36:46;;;;;;;41.95;19.98;;;14.80;99.90;;;;;;8273986;28;20042;-65
2021/08/01 19:40:47;;;;;;;41.72;20.27;;;14.70;99.90;;;;;;8272112;28;20045;-65
2021/08/01 19:44:49;;;;;;;42.08;20.45;;;14.80;99.90;;;;;;8269355;28;20022;-65
2021/08/01 19:48:50;;;;;;;42.58;20.77;;;14.80;99.90;;;;;;8274428;28;20117;-65
2021/08/01 19:52:51;;;;;;;41.95;19.95;;;14.70;99.90;;;;;;8266515;28;20033;-65
2021/08/01 19:56:53;;;;;;;42.47;20.48;;;14.70;99.90;;;;;;8267510;28;20112;-65
2021/08/01 20:00:53;;;;;;;41.97;19.95;;;14.70;99.90;;;;;;8265583;28;20121;-65
2021/08/01 20:04:54;;;;;;;42.63;20.90;;;14.70;99.90;;;;;;8275213;28;20408;-65
2021/08/01 20:08:55;;;;;;;42.42;20.70;;;14.70;99.90;;;;;;8276267;28;20039;-65
2021/08/01 20:12:56;;;;;;;41.75;20.25;;;14.60;99.90;;;;;;8270987;28;20026;-65
2021/08/01 20:16:57;;;;;;;41.72;20.17;;;14.50;99.90;;;;;;8254322;28;20030;-65
2021/08/01 20:20:58;;;;;;;42.22;20.88;;;14.60;99.90;;;;;;8275701;28;20120;-64
2021/08/01 20:24:59;;;;;;;41.70;20.52;;;14.60;99.90;;;;;;8261265;28;20029;-65
2021/08/01 20:29:00;;;;;;;42.17;21.33;;;14.40;99.90;;;;;;8243881;28;20117;-65
2021/08/01 20:33:00;;;;;;;42.20;20.60;;;14.40;99.90;;;;;;8243727;28;20088;-66
2021/08/01 20:37:01;;;;;;;40.80;20.00;;;14.30;99.90;;;;;;8266093;28;20034;-65